createdAt,value
2018-02-05T00:00:22.240Z,6.3
2018-02-05T00:01:02.756Z,6.27
2018-02-05T00:01:44.255Z,6.22
2018-02-05T00:02:25.564Z,6.31
2018-02-05T00:03:06.073Z,6.25
2018-02-05T00:03:46.620Z,6.31
2018-02-05T00:04:27.153Z,6.33
2018-02-05T00:05:07.709Z,6.33
2018-02-05T00:05:51.256Z,6.37
2018-02-05T00:06:31.812Z,6.36
2018-02-05T00:07:12.366Z,6.28
2018-02-05T00:07:52.933Z,6.25
2018-02-05T00:08:35.129Z,6.19
2018-02-05T00:09:15.651Z,6.15
2018-02-05T00:09:56.193Z,6.12
2018-02-05T00:10:36.758Z,6.22
2018-02-05T00:11:17.307Z,6.18
2018-02-05T00:11:57.833Z,6.3
2018-02-05T00:12:40.289Z,6.28
2018-02-05T00:13:20.914Z,6.22
2018-02-05T00:14:01.459Z,6.09
2018-02-05T00:14:42.038Z,6.19
2018-02-05T00:15:22.544Z,6.19
2018-02-05T00:16:03.095Z,6.22
2018-02-05T00:16:45.509Z,6.28
2018-02-05T00:17:26.056Z,6.27
2018-02-05T00:18:06.582Z,6.3
2018-02-05T00:18:47.163Z,6.37
2018-02-05T00:19:27.714Z,6.27
2018-02-05T00:20:11.752Z,6.17
2018-02-05T00:20:52.296Z,6.14
2018-02-05T00:21:32.808Z,6.27
2018-02-05T00:22:14.178Z,6.36
2018-02-05T00:22:55.767Z,6.28
2018-02-05T00:23:36.325Z,6.3
2018-02-05T00:24:16.860Z,6.36
2018-02-05T00:24:57.375Z,6.17
2018-02-05T00:25:37.966Z,6.15
2018-02-05T00:26:19.196Z,5.94
2018-02-05T00:27:00.756Z,6.11
2018-02-05T00:27:41.291Z,6.04
2018-02-05T00:28:22.803Z,6
2018-02-05T00:29:03.766Z,6.17
2018-02-05T00:29:45.893Z,6.12
2018-02-05T00:30:26.480Z,6.03
2018-02-05T00:31:07.003Z,5.97
2018-02-05T00:31:47.600Z,5.96
2018-02-05T00:32:28.109Z,5.67
2018-02-05T00:33:11.756Z,5.64
2018-02-05T00:33:52.304Z,5.94
2018-02-05T00:34:35.695Z,6
2018-02-05T00:35:16.369Z,6.01
2018-02-05T00:35:56.959Z,6.01
2018-02-05T00:36:37.536Z,6.04
2018-02-05T00:37:18.053Z,6.04
2018-02-05T00:37:59.959Z,5.97
2018-02-05T00:38:40.526Z,5.89
2018-02-05T00:39:21.136Z,5.74
2018-02-05T00:40:01.981Z,5.82
2018-02-05T00:40:42.197Z,5.65
2018-02-05T00:41:22.817Z,5.81
2018-02-05T00:42:03.379Z,5.81
2018-02-05T00:42:45.399Z,5.82
2018-02-05T00:43:25.939Z,5.81
2018-02-05T00:44:06.515Z,5.82
2018-02-05T00:44:47.074Z,5.74
2018-02-05T00:45:29.935Z,5.71
2018-02-05T00:46:10.279Z,5.67
2018-02-05T00:46:50.796Z,5.63
2018-02-05T00:47:31.585Z,5.61
2018-02-05T00:48:12.165Z,5.43
2018-02-05T00:48:52.753Z,5.54
2018-02-05T00:49:34.977Z,5.46
2018-02-05T00:50:16.615Z,5.6
2018-02-05T00:50:57.134Z,5.54
2018-02-05T00:51:37.727Z,5.6
2018-02-05T00:52:19.343Z,5.56
2018-02-05T00:53:00.285Z,5.65
2018-02-05T00:53:44.155Z,5.67
2018-02-05T00:54:25.717Z,5.64
2018-02-05T00:55:06.263Z,5.67
2018-02-05T00:55:46.913Z,5.64
2018-02-05T00:56:27.497Z,5.58
2018-02-05T00:57:08.016Z,5.64
2018-02-05T00:57:50.418Z,5.67
2018-02-05T00:58:31.014Z,5.48
2018-02-05T00:59:11.569Z,5.53
2018-02-05T00:59:52.106Z,5.61
2018-02-05T01:00:32.649Z,5.51
2018-02-05T01:01:13.208Z,5.58
2018-02-05T01:01:55.344Z,5.43
2018-02-05T01:02:35.973Z,5.49
2018-02-05T01:03:16.540Z,5.49
2018-02-05T01:03:57.078Z,5.51
2018-02-05T01:06:14.419Z,5.67
2018-02-05T01:07:00.011Z,5.75
2018-02-05T01:09:05.282Z,5.57
2018-02-05T01:09:46.678Z,5.54
2018-02-05T01:10:27.281Z,5.48
2018-02-05T01:11:07.761Z,5.58
2018-02-05T01:11:48.305Z,5.65
2018-02-05T01:12:30.705Z,5.72
2018-02-05T01:13:10.625Z,5.67
2018-02-05T01:13:51.173Z,5.64
2018-02-05T01:14:31.659Z,5.61
2018-02-05T01:15:12.219Z,5.76
2018-02-05T01:15:52.704Z,5.65
2018-02-05T01:16:33.278Z,5.74
2018-02-05T01:17:15.426Z,5.39
2018-02-05T01:17:56.993Z,5.54
2018-02-05T01:18:37.498Z,5.64
2018-02-05T01:19:18.084Z,5.46
2018-02-05T01:20:01.030Z,5.51
2018-02-05T01:21:39.046Z,5.31
2018-02-05T01:22:19.580Z,5.39
2018-02-05T01:23:00.095Z,5.42
2018-02-05T01:23:40.631Z,5.39
2018-02-05T01:24:21.231Z,5.49
2018-02-05T01:25:01.796Z,5.54
2018-02-05T01:25:42.226Z,5.54
2018-02-05T01:26:22.756Z,5.43
2018-02-05T01:27:03.338Z,5.67
2018-02-05T01:27:43.867Z,5.64
2018-02-05T01:28:24.407Z,5.71
2018-02-05T01:29:04.942Z,5.89
2018-02-05T01:29:45.485Z,5.79
2018-02-05T01:30:26.049Z,5.85
2018-02-05T01:31:06.553Z,5.82
2018-02-05T01:31:47.142Z,5.85
2018-02-05T01:32:27.701Z,5.76
2018-02-05T01:33:08.292Z,5.75
2018-02-05T01:33:48.887Z,5.6
2018-02-05T01:34:29.374Z,5.71
2018-02-05T01:35:09.969Z,5.81
2018-02-05T01:35:50.520Z,5.68
2018-02-05T01:36:31.157Z,5.61
2018-02-05T01:37:11.971Z,5.64
2018-02-05T01:37:52.544Z,5.74
2018-02-05T01:38:33.099Z,5.68
2018-02-05T01:39:13.627Z,5.85
2018-02-05T01:39:54.139Z,5.81
2018-02-05T01:40:34.703Z,5.74
2018-02-05T01:41:15.242Z,5.83
2018-02-05T01:41:55.800Z,5.9
2018-02-05T01:42:36.328Z,5.9
2018-02-05T01:43:16.863Z,5.91
2018-02-05T01:43:57.379Z,5.82
2018-02-05T01:44:38.009Z,5.96
2018-02-05T01:45:18.573Z,5.75
2018-02-05T01:45:59.116Z,5.72
2018-02-05T01:46:39.633Z,5.65
2018-02-05T01:47:20.160Z,5.68
2018-02-05T01:48:00.727Z,5.64
2018-02-05T01:48:41.378Z,5.63
2018-02-05T01:49:21.849Z,5.71
2018-02-05T01:50:02.318Z,5.64
2018-02-05T01:50:42.858Z,5.68
2018-02-05T01:51:23.405Z,5.75
2018-02-05T01:52:03.905Z,5.72
2018-02-05T01:52:44.432Z,5.71
2018-02-05T01:53:25.012Z,5.85
2018-02-05T01:54:05.548Z,5.85
2018-02-05T01:54:46.058Z,5.91
2018-02-05T01:55:26.581Z,5.83
2018-02-05T01:56:07.126Z,5.75
2018-02-05T01:56:47.631Z,5.93
2018-02-05T01:57:28.180Z,5.9
2018-02-05T01:58:08.761Z,5.81
2018-02-05T01:58:49.282Z,5.71
2018-02-05T01:59:29.829Z,5.86
2018-02-05T02:00:10.309Z,5.75
2018-02-05T02:00:50.855Z,5.76
2018-02-05T02:01:31.409Z,5.72
2018-02-05T02:02:11.940Z,5.83
2018-02-05T02:02:52.486Z,5.83
2018-02-05T02:03:33.032Z,5.97
2018-02-05T02:04:13.603Z,6.11
2018-02-05T02:04:54.155Z,6.03
2018-02-05T02:05:34.693Z,6.03
2018-02-05T02:06:15.234Z,5.89
2018-02-05T02:06:56.074Z,5.96
2018-02-05T02:07:36.658Z,6
2018-02-05T02:08:17.145Z,5.97
2018-02-05T02:08:57.704Z,5.96
2018-02-05T02:09:38.274Z,5.93
2018-02-05T02:10:18.851Z,5.94
2018-02-05T02:10:59.385Z,5.91
2018-02-05T02:11:39.963Z,5.85
2018-02-05T02:12:20.519Z,5.75
2018-02-05T02:13:01.061Z,5.49
2018-02-05T02:13:41.598Z,5.6
2018-02-05T02:14:22.128Z,5.63
2018-02-05T02:15:02.701Z,5.61
2018-02-05T02:15:43.241Z,5.54
2018-02-05T02:16:23.804Z,5.63
2018-02-05T02:17:04.450Z,5.71
2018-02-05T02:17:44.990Z,5.71
2018-02-05T02:18:25.556Z,5.74
2018-02-05T02:19:06.081Z,5.71
2018-02-05T02:19:46.626Z,5.82
2018-02-05T02:20:27.160Z,5.72
2018-02-05T02:21:07.674Z,5.86
2018-02-05T02:21:48.224Z,5.67
2018-02-05T02:22:28.679Z,5.82
2018-02-05T02:23:09.247Z,5.72
2018-02-05T02:23:49.776Z,5.72
2018-02-05T02:24:30.291Z,5.64
2018-02-05T02:25:10.860Z,5.6
2018-02-05T02:25:51.386Z,5.53
2018-02-05T02:26:31.884Z,5.63
2018-02-05T02:27:12.467Z,5.67
2018-02-05T02:27:52.982Z,5.67
2018-02-05T02:28:33.514Z,5.72
2018-02-05T02:29:14.041Z,5.79
2018-02-05T02:29:54.675Z,5.74
2018-02-05T02:30:35.178Z,5.85
2018-02-05T02:31:15.751Z,5.91
2018-02-05T02:31:56.465Z,5.94
2018-02-05T02:32:36.982Z,5.86
2018-02-05T02:33:17.573Z,5.83
2018-02-05T02:33:58.107Z,5.57
2018-02-05T02:34:38.600Z,5.67
2018-02-05T02:35:19.141Z,5.74
2018-02-05T02:35:59.725Z,5.67
2018-02-05T02:36:40.237Z,5.65
2018-02-05T02:37:20.792Z,5.75
2018-02-05T02:38:01.312Z,5.72
2018-02-05T02:38:41.837Z,5.71
2018-02-05T02:39:22.371Z,5.63
2018-02-05T02:40:02.924Z,5.76
2018-02-05T02:40:43.488Z,5.81
2018-02-05T02:41:24.030Z,5.72
2018-02-05T02:42:05.446Z,5.83
2018-02-05T02:42:46.785Z,5.81
2018-02-05T02:43:27.352Z,5.86
2018-02-05T02:44:07.888Z,5.85
2018-02-05T02:44:48.425Z,5.83
2018-02-05T02:45:28.980Z,5.85
2018-02-05T02:46:09.510Z,5.82
2018-02-05T02:46:50.060Z,5.86
2018-02-05T02:47:30.609Z,5.86
2018-02-05T02:48:11.084Z,5.86
2018-02-05T02:48:51.838Z,5.74
2018-02-05T02:49:32.430Z,5.79
2018-02-05T02:50:12.923Z,5.81
2018-02-05T02:50:53.491Z,5.75
2018-02-05T02:51:34.018Z,5.82
2018-02-05T02:52:14.593Z,5.72
2018-02-05T02:52:55.131Z,5.78
2018-02-05T02:53:35.710Z,5.85
2018-02-05T02:54:17.982Z,5.71
2018-02-05T02:54:58.496Z,5.72
2018-02-05T02:55:39.009Z,5.67
2018-02-05T02:56:19.558Z,5.64
2018-02-05T02:57:00.173Z,5.65
2018-02-05T02:57:42.819Z,5.63
2018-02-05T02:58:24.086Z,5.6
2018-02-05T02:59:05.504Z,5.51
2018-02-05T02:59:46.061Z,5.64
2018-02-05T03:00:27.412Z,5.54
2018-02-05T03:01:07.923Z,5.64
2018-02-05T03:01:48.481Z,5.64
2018-02-05T03:02:29.016Z,5.65
2018-02-05T03:03:09.560Z,5.68
2018-02-05T03:03:50.131Z,5.56
2018-02-05T03:04:30.773Z,5.53
2018-02-05T03:05:11.278Z,5.49
2018-02-05T03:05:51.808Z,5.51
2018-02-05T03:06:32.364Z,5.51
2018-02-05T03:07:12.889Z,5.46
2018-02-05T03:07:53.396Z,5.51
2018-02-05T03:08:33.959Z,5.48
2018-02-05T03:09:14.506Z,5.31
2018-02-05T03:09:55.013Z,5.4
2018-02-05T03:10:35.554Z,5.45
2018-02-05T03:11:16.060Z,5.48
2018-02-05T03:11:56.709Z,5.51
2018-02-05T03:12:37.163Z,5.31
2018-02-05T03:13:17.705Z,5.31
2018-02-05T03:13:58.298Z,5.38
2018-02-05T03:14:38.813Z,5.39
2018-02-05T03:15:19.334Z,5.4
2018-02-05T03:15:59.844Z,5.39
2018-02-05T03:16:40.391Z,5.4
2018-02-05T03:17:20.969Z,5.25
2018-02-05T03:18:01.442Z,5.33
2018-02-05T03:18:42.294Z,5.28
2018-02-05T03:19:22.784Z,5.35
2018-02-05T03:20:03.387Z,5.33
2018-02-05T03:20:43.894Z,5.25
2018-02-05T03:21:24.430Z,5.31
2018-02-05T03:22:04.937Z,5.31
2018-02-05T03:22:45.472Z,5.28
2018-02-05T03:23:26.083Z,5.31
2018-02-05T03:24:06.631Z,5.4
2018-02-05T03:24:47.201Z,5.38
2018-02-05T03:25:27.723Z,5.28
2018-02-05T03:26:08.262Z,5.33
2018-02-05T03:26:48.808Z,5.27
2018-02-05T03:27:29.368Z,5.31
2018-02-05T03:28:09.876Z,5.43
2018-02-05T03:28:50.432Z,5.3
2018-02-05T03:29:31.025Z,5.25
2018-02-05T03:30:11.526Z,5.2
2018-02-05T03:30:52.072Z,5.13
2018-02-05T03:31:32.717Z,5.2
2018-02-05T03:32:13.410Z,5.1
2018-02-05T03:32:53.905Z,5.2
2018-02-05T03:33:35.298Z,5.17
2018-02-05T03:34:16.758Z,5.13
2018-02-05T03:34:57.463Z,5.06
2018-02-05T03:35:38.010Z,4.94
2018-02-05T03:36:18.417Z,4.91
2018-02-05T03:36:59.040Z,4.91
2018-02-05T03:37:39.551Z,4.92
2018-02-05T03:38:20.718Z,5.07
2018-02-05T03:39:00.675Z,4.97
2018-02-05T03:39:41.188Z,4.94
2018-02-05T03:40:21.690Z,4.94
2018-02-05T03:41:03.443Z,4.94
2018-02-05T03:41:44.845Z,5
2018-02-05T03:42:25.428Z,5
2018-02-05T03:43:06.438Z,4.94
2018-02-05T03:43:47.290Z,5
2018-02-05T03:44:28.783Z,5.17
2018-02-05T03:45:09.297Z,5.09
2018-02-05T03:45:49.960Z,5.03
2018-02-05T03:46:30.470Z,5
2018-02-05T03:47:10.984Z,4.99
2018-02-05T03:47:51.613Z,4.99
2018-02-05T03:48:32.185Z,4.96
2018-02-05T03:49:12.768Z,4.89
2018-02-05T03:49:53.412Z,4.89
2018-02-05T03:50:33.934Z,4.96
2018-02-05T03:51:15.085Z,4.92
2018-02-05T03:51:55.600Z,4.89
2018-02-05T03:52:36.147Z,4.97
2018-02-05T03:53:16.741Z,4.92
2018-02-05T03:53:57.202Z,5
2018-02-05T03:54:37.756Z,4.88
2018-02-05T03:55:18.419Z,4.92
2018-02-05T03:55:58.849Z,4.96
2018-02-05T03:56:39.409Z,5.07
2018-02-05T03:57:19.925Z,4.86
2018-02-05T03:58:00.496Z,5.02
2018-02-05T03:58:41.044Z,5.09
2018-02-05T03:59:21.557Z,5.03
2018-02-05T04:00:02.185Z,5.21
2018-02-05T04:00:42.735Z,5.12
2018-02-05T04:01:23.281Z,5.02
2018-02-05T04:02:03.823Z,5.03
2018-02-05T04:02:44.463Z,4.97
2018-02-05T04:03:24.878Z,5.02
2018-02-05T04:04:05.416Z,4.99
2018-02-05T04:04:45.945Z,4.97
2018-02-05T04:05:26.462Z,4.94
2018-02-05T04:06:07.015Z,4.99
2018-02-05T04:06:47.565Z,4.82
2018-02-05T04:07:28.102Z,4.73
2018-02-05T04:08:08.659Z,4.91
2018-02-05T04:08:49.273Z,5.04
2018-02-05T04:09:29.744Z,5.02
2018-02-05T04:10:10.352Z,5.07
2018-02-05T04:10:50.865Z,5.06
2018-02-05T04:11:31.429Z,5.25
2018-02-05T04:12:11.943Z,5.25
2018-02-05T04:12:52.449Z,5.27
2018-02-05T04:13:32.992Z,5.25
2018-02-05T04:14:13.562Z,5.15
2018-02-05T04:14:54.058Z,5.22
2018-02-05T04:15:34.628Z,5.03
2018-02-05T04:16:15.230Z,5.03
2018-02-05T04:16:55.725Z,5.09
2018-02-05T04:17:36.247Z,5.1
2018-02-05T04:18:16.786Z,5.12
2018-02-05T04:18:57.384Z,5.25
2018-02-05T04:19:37.889Z,5.2
2018-02-05T04:20:18.470Z,5.2
2018-02-05T04:20:58.964Z,5.12
2018-02-05T04:21:39.612Z,5.25
2018-02-05T04:22:20.102Z,5.27
2018-02-05T04:23:00.614Z,5.24
2018-02-05T04:23:41.129Z,5.35
2018-02-05T04:24:21.682Z,5.39
2018-02-05T04:25:02.332Z,5.27
2018-02-05T04:25:42.766Z,5.27
2018-02-05T04:26:23.406Z,5.22
2018-02-05T04:27:03.886Z,5.13
2018-02-05T04:27:44.437Z,5.09
2018-02-05T04:28:24.968Z,5.09
2018-02-05T04:29:05.499Z,5.12
2018-02-05T04:29:45.968Z,5.1
2018-02-05T04:30:26.729Z,5.18
2018-02-05T04:31:07.300Z,5.17
2018-02-05T04:31:47.904Z,5.36
2018-02-05T04:32:28.365Z,5.27
2018-02-05T04:33:08.922Z,5.13
2018-02-05T04:33:49.429Z,5.13
2018-02-05T04:34:30.011Z,5.25
2018-02-05T04:35:10.546Z,5.21
2018-02-05T04:35:51.110Z,5.12
2018-02-05T04:36:31.615Z,5.28
2018-02-05T04:37:12.155Z,5.24
2018-02-05T04:37:52.662Z,5.06
2018-02-05T04:38:33.225Z,5.07
2018-02-05T04:39:13.903Z,5.28
2018-02-05T04:39:54.664Z,5.17
2018-02-05T04:40:35.216Z,5.15
2018-02-05T04:41:15.765Z,5.22
2018-02-05T04:41:56.257Z,5.21
2018-02-05T04:42:36.800Z,5.22
2018-02-05T04:43:17.372Z,5.12
2018-02-05T04:43:57.886Z,4.89
2018-02-05T04:44:38.485Z,4.82
2018-02-05T04:45:19.023Z,4.77
2018-02-05T04:45:59.575Z,4.84
2018-02-05T04:46:40.284Z,4.72
2018-02-05T04:47:20.851Z,4.77
2018-02-05T04:48:01.435Z,4.96
2018-02-05T04:48:41.928Z,4.84
2018-02-05T04:49:22.488Z,4.88
2018-02-05T04:50:02.999Z,4.92
2018-02-05T04:50:43.548Z,4.8
2018-02-05T04:51:24.098Z,4.82
2018-02-05T04:52:04.639Z,4.88
2018-02-05T04:52:45.184Z,4.89
2018-02-05T04:53:25.753Z,4.88
2018-02-05T04:54:06.291Z,4.78
2018-02-05T04:54:46.864Z,4.91
2018-02-05T04:55:27.388Z,4.77
2018-02-05T04:56:07.943Z,4.91
2018-02-05T04:56:48.512Z,5
2018-02-05T04:57:29.048Z,5.02
2018-02-05T04:58:09.596Z,5
2018-02-05T04:58:50.147Z,5.03
2018-02-05T04:59:30.673Z,5.1
2018-02-05T05:00:11.263Z,5.04
2018-02-05T05:00:51.715Z,5
2018-02-05T05:01:32.266Z,4.89
2018-02-05T05:02:12.765Z,4.94
2018-02-05T05:02:53.326Z,4.94
2018-02-05T05:03:33.860Z,4.89
2018-02-05T05:04:14.392Z,4.86
2018-02-05T05:04:54.942Z,4.86
2018-02-05T05:05:35.451Z,4.99
2018-02-05T05:06:16.020Z,5.06
2018-02-05T05:06:56.509Z,5.03
2018-02-05T05:07:37.065Z,4.99
2018-02-05T05:08:17.563Z,4.89
2018-02-05T05:08:58.149Z,4.84
2018-02-05T05:09:38.663Z,4.96
2018-02-05T05:10:19.202Z,4.92
2018-02-05T05:10:59.733Z,5.02
2018-02-05T05:11:40.244Z,4.99
2018-02-05T05:12:20.735Z,5.03
2018-02-05T05:13:01.368Z,5.07
2018-02-05T05:13:41.889Z,5.04
2018-02-05T05:14:22.471Z,4.97
2018-02-05T05:15:03.056Z,4.99
2018-02-05T05:15:43.547Z,4.89
2018-02-05T05:16:24.107Z,4.99
2018-02-05T05:17:04.711Z,5.04
2018-02-05T05:17:45.308Z,5
2018-02-05T05:18:25.806Z,5.13
2018-02-05T05:19:06.345Z,5.04
2018-02-05T05:19:46.889Z,5.07
2018-02-05T05:20:27.423Z,4.94
2018-02-05T05:21:07.958Z,4.86
2018-02-05T05:21:48.556Z,4.92
2018-02-05T05:22:29.737Z,5.1
2018-02-05T05:23:09.906Z,4.97
2018-02-05T05:23:50.448Z,4.92
2018-02-05T05:24:31.015Z,4.94
2018-02-05T05:25:11.623Z,4.97
2018-02-05T05:25:52.139Z,5.07
2018-02-05T05:26:33.237Z,5.04
2018-02-05T05:27:13.167Z,4.96
2018-02-05T05:27:53.694Z,4.82
2018-02-05T05:28:34.263Z,4.91
2018-02-05T05:29:14.756Z,5.04
2018-02-05T05:29:55.299Z,5
2018-02-05T05:30:35.883Z,5.07
2018-02-05T05:31:16.388Z,5.07
2018-02-05T05:31:56.994Z,4.96
2018-02-05T05:32:37.468Z,5.03
2018-02-05T05:33:18.144Z,5.06
2018-02-05T05:33:58.775Z,5.04
2018-02-05T05:34:39.361Z,5.03
2018-02-05T05:35:19.880Z,4.86
2018-02-05T05:36:01.240Z,4.92
2018-02-05T05:36:40.960Z,5.04
2018-02-05T05:37:21.497Z,4.96
2018-02-05T05:38:02.035Z,4.96
2018-02-05T05:38:42.579Z,4.99
2018-02-05T05:39:23.179Z,5.07
2018-02-05T05:40:03.796Z,5.03
2018-02-05T05:40:44.326Z,5.13
2018-02-05T05:41:24.859Z,5.02
2018-02-05T05:42:05.465Z,5.13
2018-02-05T05:42:46.039Z,5.07
2018-02-05T05:43:26.546Z,4.96
2018-02-05T05:44:07.084Z,4.75
2018-02-05T05:44:47.647Z,4.91
2018-02-05T05:45:28.242Z,4.94
2018-02-05T05:46:08.814Z,4.84
2018-02-05T05:46:49.427Z,4.92
2018-02-05T05:47:29.982Z,4.85
2018-02-05T05:48:10.539Z,4.88
2018-02-05T05:48:51.083Z,4.78
2018-02-05T05:49:31.577Z,4.82
2018-02-05T05:50:12.204Z,4.77
2018-02-05T05:50:52.705Z,4.75
2018-02-05T05:51:33.271Z,4.77
2018-02-05T05:52:13.796Z,4.8
2018-02-05T05:52:54.322Z,4.67
2018-02-05T05:53:34.853Z,4.66
2018-02-05T05:54:15.385Z,4.67
2018-02-05T05:54:55.922Z,4.59
2018-02-05T05:55:36.479Z,4.62
2018-02-05T05:56:17.004Z,4.65
2018-02-05T05:56:57.515Z,4.65
2018-02-05T05:57:38.049Z,4.65
2018-02-05T05:58:18.584Z,4.73
2018-02-05T05:58:59.144Z,4.6
2018-02-05T05:59:39.725Z,4.63
2018-02-05T06:00:20.279Z,4.67
2018-02-05T06:01:00.798Z,4.65
2018-02-05T06:01:41.319Z,4.78
2018-02-05T06:02:21.870Z,4.7
2018-02-05T06:03:02.455Z,4.8
2018-02-05T06:03:42.985Z,4.66
2018-02-05T06:04:23.447Z,4.66
2018-02-05T06:05:04.008Z,4.77
2018-02-05T06:05:44.615Z,4.75
2018-02-05T06:06:25.274Z,4.77
2018-02-05T06:07:05.797Z,4.8
2018-02-05T06:07:46.342Z,4.84
2018-02-05T06:08:26.937Z,4.88
2018-02-05T06:09:07.491Z,4.84
2018-02-05T06:09:48.046Z,4.97
2018-02-05T06:10:28.661Z,5.02
2018-02-05T06:11:09.072Z,4.89
2018-02-05T06:11:50.324Z,5.03
2018-02-05T06:12:30.811Z,5.15
2018-02-05T06:13:11.334Z,5.06
2018-02-05T06:13:51.864Z,4.92
2018-02-05T06:14:32.403Z,4.89
2018-02-05T06:15:12.931Z,4.86
2018-02-05T06:15:53.554Z,4.77
2018-02-05T06:16:34.104Z,4.8
2018-02-05T06:17:16.023Z,4.67
2018-02-05T06:17:56.561Z,4.75
2018-02-05T06:18:37.120Z,4.8
2018-02-05T06:19:17.666Z,4.85
2018-02-05T06:19:58.216Z,4.66
2018-02-05T06:20:38.774Z,4.63
2018-02-05T06:21:19.474Z,4.67
2018-02-05T06:22:00.036Z,4.75
2018-02-05T06:22:40.532Z,4.73
2018-02-05T06:23:21.126Z,4.65
2018-02-05T06:24:01.637Z,4.7
2018-02-05T06:24:42.265Z,4.75
2018-02-05T06:25:22.680Z,4.65
2018-02-05T06:26:03.296Z,4.67
2018-02-05T06:26:43.901Z,4.59
2018-02-05T06:27:24.489Z,4.7
2018-02-05T06:28:05.090Z,4.72
2018-02-05T06:28:45.611Z,4.78
2018-02-05T06:29:26.106Z,4.73
2018-02-05T06:30:06.757Z,4.78
2018-02-05T06:30:47.303Z,4.73
2018-02-05T06:31:27.840Z,4.59
2018-02-05T06:32:08.330Z,4.62
2018-02-05T06:32:48.922Z,4.82
2018-02-05T06:33:29.506Z,4.78
2018-02-05T06:34:09.999Z,4.84
2018-02-05T06:34:50.607Z,4.89
2018-02-05T06:35:31.154Z,4.88
2018-02-05T06:36:11.766Z,4.85
2018-02-05T06:36:52.393Z,4.8
2018-02-05T06:37:33.006Z,4.73
2018-02-05T06:38:13.624Z,4.89
2018-02-05T06:38:54.296Z,4.97
2018-02-05T06:39:34.934Z,5.07
2018-02-05T06:40:15.492Z,5.17
2018-02-05T06:40:56.038Z,5.07
2018-02-05T06:41:36.562Z,5.06
2018-02-05T06:42:17.176Z,5.04
2018-02-05T06:42:57.638Z,5.12
2018-02-05T06:43:38.163Z,5.13
2018-02-05T06:44:18.723Z,5.22
2018-02-05T06:44:59.287Z,5.17
2018-02-05T06:45:39.786Z,5.04
2018-02-05T06:46:20.391Z,4.94
2018-02-05T06:47:00.921Z,5
2018-02-05T06:47:41.452Z,5.03
2018-02-05T06:48:22.034Z,5.03
2018-02-05T06:49:02.596Z,5.1
2018-02-05T06:49:43.111Z,5.07
2018-02-05T06:50:23.809Z,5.13
2018-02-05T06:51:04.288Z,5.15
2018-02-05T06:51:45.227Z,5.07
2018-02-05T06:52:25.892Z,5.17
2018-02-05T06:53:06.510Z,4.97
2018-02-05T06:53:47.097Z,4.89
2018-02-05T06:54:27.638Z,5.06
2018-02-05T06:55:08.130Z,5.13
2018-02-05T06:55:48.713Z,5.02
2018-02-05T06:56:30.020Z,4.91
2018-02-05T06:57:10.532Z,4.92
2018-02-05T06:57:51.044Z,4.99
2018-02-05T06:58:31.931Z,4.77
2018-02-05T06:59:12.392Z,4.72
2018-02-05T06:59:52.994Z,4.7
2018-02-05T07:00:33.520Z,4.75
2018-02-05T07:01:14.163Z,4.82
2018-02-05T07:01:54.736Z,4.94
2018-02-05T07:02:36.331Z,4.97
2018-02-05T07:03:17.001Z,4.89
2018-02-05T07:03:57.504Z,4.92
2018-02-05T07:04:38.047Z,4.97
2018-02-05T07:05:18.566Z,5.09
2018-02-05T07:05:59.324Z,5
2018-02-05T07:06:39.956Z,5.12
2018-02-05T07:07:20.426Z,5.15
2018-02-05T07:08:01.184Z,5.2
2018-02-05T07:08:41.642Z,5.25
2018-02-05T07:09:22.237Z,5.22
2018-02-05T07:10:02.785Z,5.24
2018-02-05T07:10:43.358Z,5.27
2018-02-05T07:11:23.908Z,5.13
2018-02-05T07:12:04.782Z,5.1
2018-02-05T07:12:45.306Z,5.3
2018-02-05T07:13:25.850Z,6.12
2018-02-05T07:14:06.377Z,5.9
2018-02-05T07:14:47.946Z,6.17
2018-02-05T07:15:28.329Z,6.81
2018-02-05T07:16:08.879Z,7.12
2018-02-05T07:16:49.419Z,7.25
2018-02-05T07:17:31.043Z,6.61
2018-02-05T07:18:11.550Z,6.87
2018-02-05T07:18:52.147Z,6.8
2018-02-05T07:19:32.871Z,6.52
2018-02-05T07:20:13.437Z,6.36
2018-02-05T07:20:54.037Z,6.08
2018-02-05T07:21:34.549Z,6
2018-02-05T07:22:15.079Z,6
2018-02-05T07:22:55.606Z,5.91
2018-02-05T07:23:36.266Z,5.86
2018-02-05T07:24:16.883Z,5.67
2018-02-05T07:24:57.348Z,6.14
2018-02-05T07:25:37.896Z,6.3
2018-02-05T07:26:18.491Z,6.87
2018-02-05T07:26:58.970Z,6.87
2018-02-05T07:27:39.575Z,7.4
2018-02-05T07:28:20.107Z,7.57
2018-02-05T07:29:00.707Z,7.58
2018-02-05T07:29:41.251Z,7.58
2018-02-05T07:30:21.725Z,7.75
2018-02-05T07:31:02.288Z,7.31
2018-02-05T07:31:42.890Z,6.85
2018-02-05T07:32:23.361Z,6.67
2018-02-05T07:33:03.921Z,6.21
2018-02-05T07:33:44.596Z,6.15
2018-02-05T07:34:25.002Z,5.91
2018-02-05T07:35:05.522Z,5.76
2018-02-05T07:35:46.086Z,5.57
2018-02-05T07:36:26.716Z,5.4
2018-02-05T07:37:07.447Z,5.31
2018-02-05T07:37:47.976Z,5.25
2018-02-05T07:38:28.538Z,5.2
2018-02-05T07:39:09.082Z,5.03
2018-02-05T07:39:49.614Z,4.97
2018-02-05T07:40:30.159Z,5.06
2018-02-05T07:41:10.703Z,5.04
2018-02-05T07:41:51.266Z,5.27
2018-02-05T07:42:31.729Z,5.17
2018-02-05T07:43:12.354Z,5.06
2018-02-05T07:43:52.913Z,5.2
2018-02-05T07:44:33.450Z,5.24
2018-02-05T07:45:13.945Z,5.18
2018-02-05T07:45:54.550Z,5.25
2018-02-05T07:46:35.073Z,5.24
2018-02-05T07:47:15.724Z,5.27
2018-02-05T07:47:56.280Z,5.24
2018-02-05T07:48:36.864Z,5.13
2018-02-05T07:49:17.387Z,5.2
2018-02-05T07:49:57.901Z,5.07
2018-02-05T07:50:38.474Z,5.03
2018-02-05T07:51:19.024Z,5.17
2018-02-05T07:51:59.664Z,5.1
2018-02-05T07:52:40.178Z,5.1
2018-02-05T07:53:20.696Z,5.09
2018-02-05T07:54:01.199Z,5.13
2018-02-05T07:54:41.771Z,5.3
2018-02-05T07:55:22.311Z,5.21
2018-02-05T07:56:02.847Z,5.3
2018-02-05T07:56:43.370Z,5.36
2018-02-05T07:57:23.932Z,5.25
2018-02-05T07:58:04.503Z,5.39
2018-02-05T07:58:45.044Z,5.36
2018-02-05T07:59:25.578Z,5.25
2018-02-05T08:00:06.053Z,5.36
2018-02-05T08:00:46.619Z,5.35
2018-02-05T08:01:27.152Z,5.38
2018-02-05T08:02:07.694Z,5.35
2018-02-05T08:02:48.227Z,5.45
2018-02-05T08:03:28.750Z,5.36
2018-02-05T08:04:09.295Z,5.39
2018-02-05T08:04:50.004Z,5.27
2018-02-05T08:05:30.528Z,5.2
2018-02-05T08:06:11.005Z,5.18
2018-02-05T08:06:51.554Z,5.22
2018-02-05T08:07:32.118Z,5.28
2018-02-05T08:08:12.697Z,5.42
2018-02-05T08:08:53.181Z,5.78
2018-02-05T08:09:33.705Z,5.58
2018-02-05T08:10:14.264Z,5.35
2018-02-05T08:10:54.808Z,6.04
2018-02-05T08:11:35.361Z,6.71
2018-02-05T08:12:15.895Z,7.06
2018-02-05T08:12:56.438Z,7.43
2018-02-05T08:13:37.001Z,6.92
2018-02-05T08:14:17.532Z,6.51
2018-02-05T08:14:58.109Z,6.36
2018-02-05T08:15:38.610Z,5.86
2018-02-05T08:16:19.144Z,5.67
2018-02-05T08:16:59.685Z,5.65
2018-02-05T08:17:40.284Z,5.57
2018-02-05T08:18:20.875Z,5.58
2018-02-05T08:19:01.398Z,5.48
2018-02-05T08:19:42.022Z,5.57
2018-02-05T08:20:22.574Z,6.34
2018-02-05T08:21:03.088Z,7.09
2018-02-05T08:21:43.622Z,7.53
2018-02-05T08:22:24.096Z,7.39
2018-02-05T08:23:04.640Z,8.05
2018-02-05T08:23:45.277Z,7.83
2018-02-05T08:24:26.023Z,7.35
2018-02-05T08:25:06.514Z,6.61
2018-02-05T08:25:47.158Z,6.48
2018-02-05T08:26:27.719Z,6.46
2018-02-05T08:27:08.253Z,6.31
2018-02-05T08:27:48.796Z,6.08
2018-02-05T08:28:29.368Z,5.93
2018-02-05T08:29:09.905Z,5.93
2018-02-05T08:29:50.496Z,5.97
2018-02-05T08:30:31.100Z,5.76
2018-02-05T08:31:11.705Z,5.68
2018-02-05T08:31:52.185Z,5.61
2018-02-05T08:32:32.805Z,5.38
2018-02-05T08:33:13.389Z,5.46
2018-02-05T08:33:53.953Z,5.24
2018-02-05T08:34:34.524Z,5.25
2018-02-05T08:35:15.057Z,5.31
2018-02-05T08:35:55.614Z,5.39
2018-02-05T08:36:36.214Z,5.64
2018-02-05T08:37:16.821Z,6
2018-02-05T08:37:57.415Z,5.97
2018-02-05T08:38:37.929Z,6.03
2018-02-05T08:39:18.534Z,6.14
2018-02-05T08:39:59.141Z,6
2018-02-05T08:40:39.700Z,5.72
2018-02-05T08:41:20.228Z,5.49
2018-02-05T08:42:00.758Z,5.46
2018-02-05T08:42:41.261Z,5.43
2018-02-05T08:43:21.921Z,5.46
2018-02-05T08:44:02.422Z,5.51
2018-02-05T08:44:42.929Z,5.4
2018-02-05T08:45:23.437Z,5.35
2018-02-05T08:46:04.004Z,5.38
2018-02-05T08:46:44.634Z,5.31
2018-02-05T08:47:25.152Z,5.21
2018-02-05T08:48:05.713Z,5.18
2018-02-05T08:48:46.322Z,5.03
2018-02-05T08:49:27.366Z,5.03
2018-02-05T08:50:07.843Z,5.03
2018-02-05T08:50:48.390Z,5
2018-02-05T08:51:28.921Z,4.94
2018-02-05T08:52:09.451Z,5.06
2018-02-05T08:52:49.988Z,4.96
2018-02-05T08:53:30.581Z,5.03
2018-02-05T08:54:11.098Z,5.12
2018-02-05T08:54:51.724Z,4.96
2018-02-05T08:55:32.275Z,5
2018-02-05T08:56:12.837Z,5.04
2018-02-05T08:56:53.352Z,5.21
2018-02-05T08:57:33.892Z,5.18
2018-02-05T08:58:14.428Z,5.2
2018-02-05T08:58:55.080Z,5.18
2018-02-05T08:59:35.594Z,5.35
2018-02-05T09:00:16.112Z,5.27
2018-02-05T09:00:56.849Z,5.12
2018-02-05T09:01:37.421Z,5.02
2018-02-05T09:02:17.926Z,5.07
2018-02-05T09:02:58.524Z,5.15
2018-02-05T09:03:38.970Z,5.21
2018-02-05T09:04:19.574Z,5.09
2018-02-05T09:05:00.129Z,5.03
2018-02-05T09:05:40.684Z,5.02
2018-02-05T09:06:21.195Z,5.04
2018-02-05T09:07:01.698Z,4.99
2018-02-05T09:07:42.194Z,5.04